createdAt,value
2018-05-26T00:01:45.867Z,60.94
2018-05-26T00:04:14.548Z,59.74
2018-05-26T00:06:43.226Z,60.71
2018-05-26T00:09:11.939Z,60.71
2018-05-26T00:11:41.031Z,60.95
2018-05-26T00:14:09.664Z,61.20
2018-05-26T00:16:38.331Z,62.61
2018-05-26T00:19:06.966Z,62.89
2018-05-26T00:21:35.610Z,62.85
2018-05-26T00:24:04.575Z,63.00
2018-05-26T00:26:33.219Z,63.25
2018-05-26T00:29:02.825Z,62.60
2018-05-26T00:31:32.495Z,61.88
2018-05-26T00:34:01.172Z,61.66
2018-05-26T00:36:29.825Z,61.91
2018-05-26T00:38:59.420Z,61.82
2018-05-26T00:41:28.074Z,62.92
2018-05-26T00:43:56.742Z,63.10
2018-05-26T00:46:25.516Z,62.65
2018-05-26T00:48:54.183Z,62.88
2018-05-26T00:51:22.899Z,62.69
2018-05-26T00:53:51.510Z,63.18
2018-05-26T00:56:20.167Z,64.09
2018-05-26T00:58:49.155Z,64.30
2018-05-26T01:01:17.888Z,64.24
2018-05-26T01:03:46.868Z,64.28
2018-05-26T01:06:16.705Z,64.56
2018-05-26T01:08:45.353Z,64.12
2018-05-26T01:11:14.014Z,64.17
2018-05-26T01:13:43.877Z,62.87
2018-05-26T01:16:13.997Z,64.19
2018-05-26T01:18:42.669Z,64.43
2018-05-26T01:21:11.379Z,64.91
2018-05-26T01:23:40.039Z,64.41
2018-05-26T01:26:08.663Z,65.13
2018-05-26T01:28:38.268Z,65.51
2018-05-26T01:31:09.307Z,65.52
2018-05-26T01:33:39.285Z,65.30
2018-05-26T01:36:07.932Z,63.93
2018-05-26T01:38:36.620Z,64.77
2018-05-26T01:41:05.259Z,65.47
2018-05-26T01:43:33.949Z,65.75
2018-05-26T01:46:02.868Z,65.79
2018-05-26T01:48:31.556Z,65.68
2018-05-26T01:51:00.319Z,65.72
2018-05-26T01:53:28.981Z,66.03
2018-05-26T01:55:57.644Z,66.03
2018-05-26T01:58:26.315Z,66.67
2018-05-26T02:00:56.727Z,66.53
2018-05-26T02:03:25.396Z,66.45
2018-05-26T02:05:54.119Z,66.37
2018-05-26T02:08:22.817Z,66.65
2018-05-26T02:10:51.928Z,66.59
2018-05-26T02:13:24.831Z,66.81
2018-05-26T02:15:55.428Z,67.16
2018-05-26T02:18:26.495Z,67.31
2018-05-26T02:20:55.421Z,67.13
2018-05-26T02:23:24.171Z,67.37
2018-05-26T02:26:02.347Z,66.82
2018-05-26T02:28:31.054Z,66.60
2018-05-26T02:30:59.666Z,66.69
2018-05-26T02:33:32.881Z,66.50
2018-05-26T02:36:01.569Z,66.74
2018-05-26T02:38:33.145Z,67.91
2018-05-26T02:41:02.098Z,67.79
2018-05-26T02:43:30.745Z,68.34
2018-05-26T02:45:59.398Z,68.32
2018-05-26T02:48:28.264Z,68.28
2018-05-26T02:50:56.884Z,67.77
2018-05-26T02:53:25.586Z,67.89
2018-05-26T02:55:54.202Z,68.44
2018-05-26T02:58:22.862Z,68.34
2018-05-26T03:00:51.539Z,69.12
2018-05-26T03:03:20.186Z,69.96
2018-05-26T03:06:06.884Z,70.44
2018-05-26T03:08:53.875Z,70.51
2018-05-26T03:11:43.100Z,69.09
2018-05-26T03:14:29.857Z,68.82
2018-05-26T03:16:58.518Z,68.57
2018-05-26T03:19:28.130Z,70.17
2018-05-26T03:21:56.754Z,70.00
2018-05-26T03:24:25.517Z,70.67
2018-05-26T03:26:54.119Z,70.26
2018-05-26T03:29:22.820Z,70.84
2018-05-26T03:31:51.476Z,70.52
2018-05-26T03:34:20.552Z,70.59
2018-05-26T03:36:49.173Z,70.23
2018-05-26T03:39:17.826Z,71.03
2018-05-26T03:41:46.589Z,70.49
2018-05-26T03:44:15.299Z,67.25
2018-05-26T03:46:45.899Z,68.80
2018-05-26T03:49:14.597Z,69.45
2018-05-26T03:51:43.256Z,69.43
2018-05-26T03:54:11.928Z,69.72
2018-05-26T03:57:17.759Z,69.72
2018-05-26T04:00:11.259Z,70.05
2018-05-26T04:02:41.732Z,70.33
2018-05-26T04:05:10.391Z,71.12
2018-05-26T04:10:26.655Z,71.50
2018-05-26T04:12:57.347Z,70.25
2018-05-26T04:15:38.600Z,71.49
2018-05-26T04:18:07.205Z,71.85
2018-05-26T04:20:35.874Z,72.05
2018-05-26T04:23:12.920Z,71.67
2018-05-26T04:25:41.599Z,71.71
2018-05-26T04:28:10.413Z,71.64
2018-05-26T04:30:40.041Z,71.58
2018-05-26T04:35:56.276Z,71.01
2018-05-26T04:38:24.940Z,70.83
2018-05-26T04:40:55.159Z,70.66
2018-05-26T04:43:23.813Z,70.65
2018-05-26T04:45:52.474Z,70.45
2018-05-26T04:48:21.100Z,70.29
2018-05-26T04:50:50.748Z,70.51
2018-05-26T04:53:19.765Z,70.19
2018-05-26T04:55:49.432Z,70.15
2018-05-26T04:58:19.837Z,69.92
2018-05-26T05:00:48.847Z,70.29
2018-05-26T05:03:20.538Z,70.15
2018-05-26T05:05:49.542Z,70.13
2018-05-26T05:08:18.489Z,70.03
2018-05-26T05:10:47.737Z,70.05
2018-05-26T05:13:16.355Z,69.80
2018-05-26T05:15:45.861Z,67.94
2018-05-26T05:18:14.547Z,69.49
2018-05-26T05:20:43.240Z,69.98
2018-05-26T05:23:11.902Z,70.21
2018-05-26T05:25:43.030Z,70.03
2018-05-26T05:28:11.729Z,70.09
2018-05-26T05:30:40.381Z,67.79
2018-05-26T05:33:09.059Z,68.83
2018-05-26T05:35:37.701Z,68.92
2018-05-26T05:38:06.360Z,68.95
2018-05-26T05:40:35.274Z,68.41
2018-05-26T05:43:03.953Z,66.05
2018-05-26T05:45:32.595Z,67.64
2018-05-26T05:48:01.341Z,67.65
2018-05-26T05:50:29.974Z,67.35
2018-05-26T05:52:58.650Z,66.82
2018-05-26T05:55:27.342Z,66.56
2018-05-26T05:57:56.030Z,66.27
2018-05-26T06:00:24.721Z,65.74
2018-05-26T06:02:53.456Z,65.53
2018-05-26T06:05:22.436Z,64.93
2018-05-26T06:07:51.097Z,63.89
2018-05-26T06:10:19.749Z,63.53
2018-05-26T06:12:49.577Z,60.73
2018-05-26T06:15:18.252Z,61.60
2018-05-26T06:17:47.183Z,61.47
2018-05-26T06:20:15.824Z,61.50
2018-05-26T06:22:44.618Z,61.00
2018-05-26T06:25:13.301Z,60.28
2018-05-26T06:27:43.661Z,59.89
2018-05-26T06:30:12.373Z,60.04
2018-05-26T06:32:44.331Z,56.98
2018-05-26T06:35:12.987Z,58.09
2018-05-26T06:37:42.019Z,58.42
2018-05-26T06:40:10.860Z,58.62
2018-05-26T06:42:40.618Z,58.12
2018-05-26T06:45:09.258Z,57.88
2018-05-26T06:47:38.106Z,57.73
2018-05-26T06:50:08.003Z,58.01
2018-05-26T06:52:42.194Z,57.69
2018-05-26T06:55:10.836Z,57.78
2018-05-26T06:57:41.228Z,53.78
2018-05-26T07:00:10.174Z,56.05
2018-05-26T07:02:46.473Z,56.22
2018-05-26T07:05:15.134Z,56.51
2018-05-26T07:07:46.594Z,56.55
2018-05-26T07:10:18.031Z,56.92
2018-05-26T07:12:46.735Z,53.03
2018-05-26T07:15:18.638Z,54.75
2018-05-26T07:17:49.446Z,51.20
2018-05-26T07:20:18.265Z,49.93
2018-05-26T07:22:46.941Z,52.33
2018-05-26T07:25:15.681Z,52.71
2018-05-26T07:27:49.645Z,52.58
2018-05-26T07:30:19.267Z,52.61
2018-05-26T07:32:47.883Z,52.69
2018-05-26T07:35:16.881Z,52.11
2018-05-26T07:37:46.351Z,51.49
2018-05-26T07:40:15.352Z,51.50
2018-05-26T07:42:45.361Z,51.29
2018-05-26T07:45:14.399Z,50.71
2018-05-26T07:47:43.070Z,50.60
2018-05-26T07:50:11.770Z,46.32
2018-05-26T07:52:40.423Z,48.55
2018-05-26T07:55:09.172Z,49.30
2018-05-26T07:57:37.810Z,49.30
2018-05-26T08:00:06.544Z,48.74
2018-05-26T08:02:35.165Z,49.26
2018-05-26T08:05:03.836Z,48.80
2018-05-26T08:07:32.498Z,47.93
2018-05-26T08:10:03.190Z,47.48
2018-05-26T08:12:32.032Z,47.87
2018-05-26T08:15:00.710Z,47.89
2018-05-26T08:17:29.775Z,47.28
2018-05-26T08:19:58.409Z,47.81
2018-05-26T08:22:27.034Z,47.41
2018-05-26T08:24:55.710Z,41.87
2018-05-26T08:27:24.333Z,43.84
2018-05-26T08:29:53.017Z,43.89
2018-05-26T08:32:22.523Z,44.29
2018-05-26T08:34:51.213Z,44.19
2018-05-26T08:37:19.857Z,44.25
2018-05-26T08:39:48.527Z,44.51
2018-05-26T08:42:17.172Z,44.09
2018-05-26T08:44:46.430Z,43.19
2018-05-26T08:47:15.047Z,42.58
2018-05-26T08:49:52.096Z,42.80
2018-05-26T08:52:21.127Z,42.20
2018-05-26T08:54:50.495Z,41.15
2018-05-26T08:57:20.993Z,41.57
2018-05-26T08:59:50.127Z,40.72
2018-05-26T09:02:19.270Z,40.64
2018-05-26T09:04:49.854Z,40.73
2018-05-26T09:07:19.067Z,41.11
2018-05-26T09:09:48.256Z,41.18
2018-05-26T09:12:17.235Z,40.15
2018-05-26T09:14:46.367Z,40.65
2018-05-26T09:17:15.356Z,39.15
2018-05-26T09:19:45.115Z,39.18
2018-05-26T09:22:15.767Z,39.30
2018-05-26T09:24:44.371Z,39.08
2018-05-26T09:27:13.552Z,38.58
2018-05-26T09:29:42.292Z,34.19
2018-05-26T09:32:12.069Z,35.84
2018-05-26T09:34:40.791Z,36.22
2018-05-26T09:37:10.874Z,32.57
2018-05-26T09:39:42.279Z,35.00
2018-05-26T09:42:10.912Z,36.08
2018-05-26T09:44:39.651Z,36.13
2018-05-26T09:47:08.454Z,33.45
2018-05-26T09:49:45.208Z,34.43
2018-05-26T09:52:54.040Z,34.46
2018-05-26T09:55:30.454Z,34.08
2018-05-26T09:58:01.239Z,33.09
2018-05-26T10:15:42.118Z,32.52
2018-05-26T10:18:10.745Z,32.75
2018-05-26T10:20:40.576Z,32.95
2018-05-26T10:23:09.226Z,32.41
2018-05-26T10:25:37.879Z,27.90
2018-05-26T10:28:11.167Z,29.47
2018-05-26T10:30:42.712Z,30.51
2018-05-26T10:33:11.442Z,30.60
2018-05-26T10:35:40.097Z,30.34
2018-05-26T10:38:09.813Z,30.46
2018-05-26T10:40:42.177Z,30.68
2018-05-26T10:43:11.407Z,30.05
2018-05-26T10:45:40.408Z,30.55
2018-05-26T10:50:56.608Z,28.87
2018-05-26T10:53:25.308Z,28.58
2018-05-26T10:55:54.007Z,27.23
2018-05-26T10:58:22.667Z,27.90
2018-05-26T11:00:52.424Z,27.73
2018-05-26T11:03:24.079Z,27.60
2018-05-26T11:05:52.694Z,25.09
2018-05-26T11:08:21.840Z,24.73
2018-05-26T11:10:55.721Z,26.63
2018-05-26T11:13:25.196Z,27.75
2018-05-26T11:15:54.064Z,26.29
2018-05-26T11:18:22.749Z,27.24
2018-05-26T11:23:42.351Z,22.20
2018-05-26T11:26:14.318Z,23.29
2018-05-26T11:28:42.987Z,24.32
2018-05-26T11:31:11.663Z,24.37
2018-05-26T11:33:40.259Z,25.78
2018-05-26T11:36:09.230Z,26.53
2018-05-26T11:38:40.857Z,26.71
2018-05-26T11:41:09.494Z,26.21
2018-05-26T11:43:38.198Z,26.99
2018-05-26T11:46:06.776Z,23.77
2018-05-26T11:48:35.831Z,25.93
2018-05-26T11:51:04.925Z,26.33
2018-05-26T11:53:33.573Z,26.93
2018-05-26T11:56:02.212Z,26.97
2018-05-26T11:58:31.273Z,27.09
2018-05-26T12:00:59.892Z,27.33
2018-05-26T12:03:31.509Z,28.27
2018-05-26T12:06:00.126Z,25.70
2018-05-26T12:08:28.772Z,27.73
2018-05-26T12:11:01.892Z,28.26
2018-05-26T12:13:30.580Z,28.72
2018-05-26T12:15:59.352Z,29.19
2018-05-26T12:18:27.987Z,28.66
2018-05-26T12:20:58.942Z,29.35
2018-05-26T12:23:27.603Z,30.68
2018-05-26T12:25:56.233Z,31.44
2018-05-26T12:28:24.872Z,29.61
2018-05-26T12:30:53.525Z,30.03
2018-05-26T12:33:22.148Z,30.72
2018-05-26T12:35:50.784Z,31.21
2018-05-26T12:38:19.407Z,32.52
2018-05-26T12:40:48.059Z,32.99
2018-05-26T12:43:16.663Z,30.84
2018-05-26T12:45:45.308Z,30.43
2018-05-26T12:48:13.926Z,29.56
2018-05-26T12:50:42.576Z,29.09
2018-05-26T12:53:11.272Z,28.86
2018-05-26T12:55:39.942Z,28.36
2018-05-26T12:58:08.553Z,28.10
2018-05-26T13:00:37.202Z,28.22
2018-05-26T13:03:05.852Z,28.61
2018-05-26T13:05:34.498Z,28.69
2018-05-26T13:08:03.100Z,25.63
2018-05-26T13:10:31.731Z,27.06
2018-05-26T13:13:00.334Z,27.88
2018-05-26T13:15:28.970Z,27.41
2018-05-26T13:17:57.580Z,26.59
2018-05-26T13:20:26.219Z,23.64
2018-05-26T13:22:54.819Z,22.98
2018-05-26T13:25:23.463Z,24.82
2018-05-26T13:27:52.067Z,24.46
2018-05-26T13:30:20.704Z,23.54
2018-05-26T13:32:49.311Z,23.74
2018-05-26T13:35:17.972Z,23.37
2018-05-26T13:37:46.566Z,22.84
2018-05-26T13:40:15.202Z,22.81
2018-05-26T13:42:43.816Z,23.35
2018-05-26T13:45:12.450Z,22.38
2018-05-26T13:47:41.059Z,22.57
2018-05-26T13:50:09.699Z,22.50
2018-05-26T13:52:38.322Z,23.19
2018-05-26T13:55:06.967Z,24.12
2018-05-26T13:57:35.575Z,23.52
2018-05-26T14:00:04.225Z,23.02
2018-05-26T14:02:32.839Z,22.48
2018-05-26T14:05:01.443Z,21.54
2018-05-26T14:07:30.080Z,21.88
2018-05-26T14:09:58.686Z,21.53
2018-05-26T14:12:27.342Z,21.34
2018-05-26T14:14:55.955Z,21.03
2018-05-26T14:17:24.596Z,21.00
2018-05-26T14:19:54.150Z,20.30
2018-05-26T14:22:22.779Z,20.85
2018-05-26T14:24:51.391Z,20.97
2018-05-26T14:27:20.028Z,18.67
2018-05-26T14:29:48.636Z,20.42
2018-05-26T14:32:19.302Z,20.25
2018-05-26T14:34:49.920Z,19.57
2018-05-26T14:37:18.553Z,20.46
2018-05-26T14:39:47.171Z,19.97
2018-05-26T14:42:16.244Z,20.94
2018-05-26T14:44:44.846Z,19.42
2018-05-26T14:47:13.480Z,20.09
2018-05-26T14:49:42.088Z,20.38
2018-05-26T14:52:10.721Z,19.35
2018-05-26T14:54:39.331Z,19.03
2018-05-26T14:57:07.969Z,19.47
2018-05-26T14:59:36.577Z,18.43
2018-05-26T15:02:05.214Z,17.47
2018-05-26T15:04:33.849Z,17.79
2018-05-26T15:07:02.483Z,17.72
2018-05-26T15:09:31.102Z,17.15
2018-05-26T15:11:59.904Z,17.14
2018-05-26T15:14:28.527Z,15.12
2018-05-26T15:16:57.183Z,16.46
2018-05-26T15:19:25.783Z,16.34
2018-05-26T15:21:54.417Z,16.63
2018-05-26T15:24:23.036Z,17.41
2018-05-26T15:26:51.681Z,18.20
2018-05-26T15:29:20.296Z,19.22
2018-05-26T15:31:48.942Z,19.14
2018-05-26T15:34:17.546Z,19.10
2018-05-26T15:36:46.160Z,18.91
2018-05-26T15:39:14.812Z,17.94
2018-05-26T15:41:43.415Z,17.68
2018-05-26T15:44:12.048Z,17.57
2018-05-26T15:46:40.656Z,16.55
2018-05-26T15:49:09.292Z,17.62
2018-05-26T15:51:37.928Z,15.26
2018-05-26T15:54:06.575Z,16.70
2018-05-26T15:56:35.173Z,17.11
2018-05-26T15:59:03.813Z,18.34
2018-05-26T16:01:32.410Z,18.51
2018-05-26T16:04:01.047Z,19.13
2018-05-26T16:06:29.707Z,19.47
2018-05-26T16:08:58.295Z,18.52
2018-05-26T16:11:26.904Z,15.54
2018-05-26T16:13:55.591Z,17.08
2018-05-26T16:16:24.211Z,17.54
2018-05-26T16:18:52.848Z,17.50
2018-05-26T16:21:21.456Z,17.13
2018-05-26T16:23:50.103Z,17.90
2018-05-26T16:26:18.757Z,17.29
2018-05-26T16:28:47.399Z,18.65
2018-05-26T16:31:16.009Z,19.03
2018-05-26T16:33:44.638Z,18.89
2018-05-26T16:36:13.243Z,18.95
2018-05-26T16:38:41.881Z,18.68
2018-05-26T16:41:10.498Z,18.88
2018-05-26T16:43:39.135Z,18.76
2018-05-26T16:46:07.757Z,19.08
2018-05-26T16:48:36.390Z,15.90
2018-05-26T16:51:04.999Z,17.60
2018-05-26T16:53:33.635Z,17.41
2018-05-26T16:56:02.253Z,17.51
2018-05-26T16:58:30.883Z,15.93
2018-05-26T17:00:59.503Z,17.36
2018-05-26T17:03:28.139Z,17.61
2018-05-26T17:05:56.756Z,17.53
2018-05-26T17:08:25.390Z,17.43
2018-05-26T17:10:54.136Z,17.60
2018-05-26T17:13:22.756Z,17.82
2018-05-26T17:15:51.392Z,17.28
2018-05-26T17:18:20.006Z,15.51
2018-05-26T17:20:48.638Z,16.86
2018-05-26T17:23:17.258Z,16.95
2018-05-26T17:25:45.918Z,16.68
2018-05-26T17:28:14.523Z,17.02
2018-05-26T17:30:43.175Z,17.04
2018-05-26T17:33:11.791Z,17.19
2018-05-26T17:35:40.450Z,17.50
2018-05-26T17:38:09.063Z,17.57
2018-05-26T17:40:37.699Z,17.73
2018-05-26T17:43:06.319Z,17.96
2018-05-26T17:45:34.974Z,18.51
2018-05-26T17:48:03.587Z,19.21
2018-05-26T17:50:32.223Z,20.21
2018-05-26T17:53:00.823Z,21.24
2018-05-26T17:55:30.457Z,22.40
2018-05-26T17:57:59.091Z,22.90
2018-05-26T18:00:27.735Z,23.69
2018-05-26T18:02:56.333Z,24.85
2018-05-26T18:05:25.012Z,25.06
2018-05-26T18:07:53.648Z,26.15
2018-05-26T18:10:22.296Z,26.69
2018-05-26T18:12:50.916Z,27.64
2018-05-26T18:15:19.560Z,28.58
2018-05-26T18:17:48.169Z,28.01
2018-05-26T18:20:16.836Z,29.73
2018-05-26T18:22:45.832Z,30.37
2018-05-26T18:25:14.472Z,31.08
2018-05-26T18:27:43.104Z,31.99
2018-05-26T18:30:11.744Z,32.51
2018-05-26T18:32:40.358Z,33.03
2018-05-26T18:35:08.994Z,33.00
2018-05-26T18:37:39.733Z,34.00
2018-05-26T18:40:10.699Z,34.67
2018-05-26T18:42:41.336Z,34.63
2018-05-26T18:45:11.244Z,34.57
2018-05-26T18:47:40.032Z,34.83
2018-05-26T18:50:08.660Z,35.18
2018-05-26T18:52:37.318Z,35.41
2018-05-26T18:55:08.312Z,34.93
2018-05-26T18:57:36.955Z,36.26
2018-05-26T19:00:05.588Z,36.40
2018-05-26T19:02:34.241Z,36.75
2018-05-26T19:05:02.887Z,37.20
2018-05-26T19:07:31.532Z,37.58
2018-05-26T19:10:00.154Z,37.58
2018-05-26T19:12:28.936Z,36.28
2018-05-26T19:14:57.576Z,37.36
2018-05-26T19:17:26.231Z,37.71
2018-05-26T19:19:54.871Z,38.11
2018-05-26T19:22:23.525Z,38.33
2018-05-26T19:24:54.072Z,38.54
2018-05-26T19:27:22.730Z,39.39
2018-05-26T19:29:53.713Z,40.04
2018-05-26T19:32:22.395Z,40.18
2018-05-26T19:34:51.019Z,39.95
2018-05-26T19:37:19.656Z,40.54
2018-05-26T19:39:48.302Z,40.56
2018-05-26T19:42:16.960Z,38.99
2018-05-26T19:44:45.607Z,40.39
2018-05-26T19:47:14.293Z,40.36
2018-05-26T19:49:42.903Z,40.11
2018-05-26T19:52:11.556Z,40.44
2018-05-26T19:54:40.176Z,40.71
2018-05-26T19:57:08.896Z,40.73
2018-05-26T19:59:40.359Z,38.84
2018-05-26T20:02:11.081Z,40.09
2018-05-26T20:04:42.220Z,40.60
2018-05-26T20:07:12.960Z,41.77
2018-05-26T20:09:41.637Z,42.27
2018-05-26T20:12:10.287Z,43.77
2018-05-26T20:14:39.834Z,44.26
2018-05-26T20:17:08.507Z,46.65
2018-05-26T20:19:39.453Z,47.02
2018-05-26T20:22:08.088Z,48.58
2018-05-26T20:27:26.524Z,47.34
2018-05-26T20:29:55.188Z,48.82
2018-05-26T20:32:23.851Z,49.45
2018-05-26T20:35:00.232Z,48.91
2018-05-26T20:37:36.405Z,48.55
2018-05-26T20:40:05.522Z,48.83
2018-05-26T20:42:51.632Z,49.07
2018-05-26T20:45:22.723Z,50.12
2018-05-26T20:47:53.719Z,50.76
2018-05-26T20:50:23.100Z,50.95
2018-05-26T20:52:53.602Z,50.71
2018-05-26T20:58:09.892Z,52.19
2018-05-26T21:00:41.039Z,51.85
2018-05-26T21:03:10.065Z,52.81
2018-05-26T21:05:39.799Z,52.61
2018-05-26T21:08:16.366Z,52.98
2018-05-26T21:10:45.050Z,54.07
2018-05-26T21:13:21.725Z,53.59
2018-05-26T21:15:50.361Z,54.40
2018-05-26T21:18:19.031Z,54.94
2018-05-26T21:20:49.649Z,55.43
2018-05-26T21:23:18.700Z,55.89
2018-05-26T21:25:47.723Z,54.85
2018-05-26T21:28:16.416Z,56.52
2018-05-26T21:30:45.976Z,56.47
2018-05-26T21:33:15.207Z,56.72
2018-05-26T21:35:46.060Z,56.89
2018-05-26T21:38:18.075Z,57.27
2018-05-26T21:40:46.753Z,55.87
2018-05-26T21:43:15.992Z,57.29
2018-05-26T21:45:45.028Z,57.39
2018-05-26T21:48:13.648Z,57.76
2018-05-26T21:50:42.338Z,57.71
2018-05-26T21:53:10.952Z,58.00
2018-05-26T21:55:42.829Z,58.23
2018-05-26T21:58:16.145Z,58.39
2018-05-26T22:00:49.557Z,58.43
2018-05-26T22:03:20.550Z,58.76
2018-05-26T22:05:49.275Z,58.68
2018-05-26T22:08:17.866Z,58.72
2018-05-26T22:10:48.665Z,58.83
2018-05-26T22:13:17.303Z,58.95
2018-05-26T22:15:45.975Z,59.43
2018-05-26T22:18:14.648Z,58.99
2018-05-26T22:20:43.324Z,59.12
2018-05-26T22:23:11.948Z,58.92
2018-05-26T22:25:42.290Z,58.90
2018-05-26T22:28:12.279Z,58.83
2018-05-26T22:30:44.434Z,59.55
2018-05-26T22:33:14.801Z,60.23
2018-05-26T22:35:43.912Z,60.06
2018-05-26T22:38:14.919Z,58.29
2018-05-26T22:40:45.063Z,59.06
2018-05-26T22:43:18.677Z,59.33
2018-05-26T22:45:49.442Z,59.79
2018-05-26T22:48:19.956Z,60.19
2018-05-26T22:50:56.101Z,59.67
2018-05-26T22:53:25.841Z,61.19
2018-05-26T22:55:56.768Z,61.25
2018-05-26T22:58:30.232Z,61.03
2018-05-26T23:01:02.760Z,60.97
2018-05-26T23:03:40.167Z,61.20
2018-05-26T23:06:09.676Z,60.42
2018-05-26T23:08:38.752Z,61.54
2018-05-26T23:11:07.906Z,61.85
2018-05-26T23:13:37.040Z,61.56
2018-05-26T23:16:06.214Z,61.34
2018-05-26T23:18:35.401Z,61.30
2018-05-26T23:21:04.430Z,61.43
2018-05-26T23:23:33.410Z,61.86
2018-05-26T23:26:02.199Z,61.60
2018-05-26T23:28:39.887Z,61.24
2018-05-26T23:31:08.824Z,61.67
2018-05-26T23:33:40.546Z,62.01
2018-05-26T23:36:10.568Z,61.90
2018-05-26T23:38:40.018Z,62.11
2018-05-26T23:41:08.965Z,62.41
2018-05-26T23:43:37.902Z,62.76
2018-05-26T23:46:09.417Z,61.55
2018-05-26T23:48:39.571Z,60.95
2018-05-26T23:51:08.755Z,60.44
2018-05-26T23:53:37.597Z,60.08
2018-05-26T23:56:06.774Z,61.59
2018-05-26T23:58:35.274Z,61.98
